createdAt,value
2023-02-08T13:31:04.963Z,1.50
2023-02-08T13:32:05.895Z,1.30
2023-02-08T13:33:05.787Z,1.60
2023-02-08T13:34:05.771Z,1.40
2023-02-08T13:35:05.815Z,1.40
2023-02-08T13:56:10.847Z,0.70
2023-02-08T13:57:09.864Z,0.60
2023-02-08T13:58:09.857Z,0.50
2023-02-08T13:59:11.742Z,1.00
2023-02-08T14:00:09.833Z,1.20
2023-02-08T14:01:09.804Z,0.60
2023-02-08T14:02:09.783Z,1.30
2023-02-08T14:03:09.899Z,1.20
2023-02-08T14:04:09.811Z,1.00
2023-02-08T14:05:09.752Z,0.70
2023-02-08T14:06:09.739Z,1.00
2023-02-08T14:07:09.755Z,1.10
2023-02-08T14:08:09.757Z,0.90
2023-02-08T14:09:15.734Z,0.80
2023-02-08T14:10:09.758Z,1.20
2023-02-08T14:11:09.761Z,0.90
2023-02-08T14:12:09.672Z,0.90
2023-02-08T14:13:09.711Z,1.30
2023-02-08T14:14:09.689Z,1.30
2023-02-08T14:15:09.740Z,0.70
2023-02-08T14:16:09.717Z,0.70
2023-02-08T14:17:09.657Z,0.80
2023-02-08T14:18:09.687Z,0.80
2023-02-08T14:19:09.783Z,0.70
2023-02-08T14:20:09.645Z,0.60
2023-02-08T14:21:09.640Z,0.90
2023-02-08T14:22:09.586Z,0.90
2023-02-08T14:23:09.839Z,1.20
2023-02-08T14:24:09.634Z,0.80
2023-02-08T14:25:09.616Z,0.90
2023-02-08T14:26:09.553Z,0.90
2023-02-08T14:27:09.847Z,1.00
2023-02-08T14:28:09.580Z,0.60
2023-02-08T14:29:09.747Z,1.50
2023-02-08T14:30:09.581Z,0.90
2023-02-08T14:31:09.639Z,0.90
2023-02-08T14:32:09.489Z,0.90
2023-02-08T14:33:09.479Z,0.80
2023-02-08T14:34:09.476Z,0.80
2023-02-08T14:35:09.462Z,1.00
2023-02-08T14:36:09.426Z,0.70
2023-02-08T14:37:09.413Z,0.90
2023-02-08T14:38:09.396Z,0.80
2023-02-08T14:39:09.435Z,1.20
2023-02-08T14:40:09.383Z,1.10
2023-02-08T14:41:16.314Z,1.00
2023-02-08T14:42:09.372Z,0.70
2023-02-08T14:43:09.352Z,1.10
2023-02-08T14:44:09.354Z,0.80
2023-02-08T14:45:09.386Z,0.70
2023-02-08T14:46:09.361Z,0.70
2023-02-08T14:47:09.361Z,0.90
2023-02-08T14:48:09.321Z,1.50
2023-02-08T14:49:09.316Z,1.00
2023-02-08T14:50:09.277Z,1.30
2023-02-08T14:51:09.364Z,1.20
2023-02-08T14:52:09.258Z,1.10
2023-02-08T14:53:09.248Z,1.10
2023-02-08T14:54:09.262Z,1.20
2023-02-08T14:55:09.227Z,1.00
2023-02-08T14:56:09.226Z,1.70
2023-02-08T14:57:09.339Z,1.60
2023-02-08T14:58:09.186Z,1.20
2023-02-08T14:59:09.438Z,0.80
2023-02-08T15:00:09.176Z,1.20
2023-02-08T15:01:09.212Z,1.00
2023-02-08T15:02:09.145Z,1.30
2023-02-08T15:03:09.135Z,1.40
2023-02-08T15:04:09.954Z,1.60
2023-02-08T15:05:10.375Z,1.40
2023-02-08T15:06:09.111Z,1.20
2023-02-08T15:07:09.106Z,1.50
2023-02-08T15:08:09.092Z,1.00
2023-02-08T15:09:09.088Z,1.30
2023-02-08T15:10:09.124Z,1.00
2023-02-08T15:11:09.060Z,1.40
2023-02-08T15:12:09.035Z,1.00
2023-02-08T15:13:09.039Z,1.10
2023-02-08T15:14:09.048Z,1.50
2023-02-08T15:15:09.047Z,1.00
2023-02-08T15:16:09.021Z,0.80
2023-02-08T15:17:09.009Z,1.00
2023-02-08T15:18:08.986Z,1.30
2023-02-08T15:19:08.999Z,1.20
2023-02-08T15:20:08.973Z,1.00
2023-02-08T15:21:08.966Z,1.50
2023-02-08T15:22:08.943Z,1.20
2023-02-08T15:23:08.937Z,1.20
2023-02-08T15:24:08.918Z,1.50
2023-02-08T15:25:08.935Z,1.30
2023-02-08T15:26:08.941Z,1.80
2023-02-08T15:27:08.891Z,0.80
2023-02-08T15:28:08.889Z,1.10
2023-02-08T15:29:09.026Z,1.20
2023-02-08T15:30:08.872Z,0.90
2023-02-08T15:31:08.871Z,1.30
2023-02-08T15:32:08.831Z,1.50
2023-02-08T15:33:08.824Z,1.10
2023-02-08T15:34:08.808Z,1.10
2023-02-08T15:35:09.264Z,1.10
2023-02-08T15:36:08.787Z,1.30
2023-02-08T15:37:08.783Z,0.90
2023-02-08T15:38:08.762Z,1.20
2023-02-08T15:39:08.761Z,0.90
2023-02-08T15:40:08.777Z,1.20
2023-02-08T15:41:08.772Z,1.30
2023-02-08T15:42:08.724Z,1.20
2023-02-08T15:43:08.738Z,0.80
2023-02-08T15:44:08.700Z,1.20
2023-02-08T15:45:08.721Z,0.80
2023-02-08T15:46:08.747Z,1.50
2023-02-08T15:47:08.742Z,1.30
2023-02-08T15:48:08.669Z,1.10
2023-02-08T15:49:08.777Z,1.20
2023-02-08T15:50:08.679Z,1.00
2023-02-08T15:51:08.678Z,1.30
2023-02-08T15:52:08.644Z,1.10
2023-02-08T15:53:08.629Z,1.40
2023-02-08T15:54:08.606Z,1.30
2023-02-08T15:55:08.618Z,1.30
2023-02-08T15:56:08.593Z,1.00
2023-02-08T15:57:08.582Z,1.50
2023-02-08T15:58:08.574Z,1.10
2023-02-08T15:59:08.596Z,1.10
2023-02-08T16:00:08.582Z,1.60
2023-02-08T16:01:08.579Z,1.00
2023-02-08T16:02:08.512Z,1.00
2023-02-08T16:03:08.768Z,1.10
2023-02-08T16:04:08.528Z,1.10
2023-02-08T16:05:08.504Z,1.60
2023-02-08T16:06:08.477Z,1.50
2023-02-08T16:07:08.492Z,1.80
2023-02-08T16:08:08.458Z,1.80
2023-02-08T16:09:08.499Z,1.40
2023-02-08T16:10:08.471Z,1.00
2023-02-08T16:11:08.420Z,1.20
2023-02-08T16:12:08.410Z,1.80
2023-02-08T16:13:08.397Z,1.50
2023-02-08T16:14:08.409Z,1.60
2023-02-08T16:15:08.410Z,1.60
2023-02-08T16:16:09.067Z,1.10
2023-02-08T16:17:08.360Z,1.30
2023-02-08T16:18:08.352Z,1.50
2023-02-08T16:19:08.340Z,1.20
2023-02-08T16:20:08.334Z,1.20
2023-02-08T16:21:08.348Z,1.30
2023-02-08T16:22:08.308Z,1.50
2023-02-08T16:23:08.290Z,1.70
2023-02-08T16:24:08.372Z,2.50
2023-02-08T16:25:08.273Z,2.00
2023-02-08T16:26:08.294Z,1.90
2023-02-08T16:27:08.254Z,1.90
2023-02-08T16:28:08.263Z,1.50
2023-02-08T16:29:08.425Z,2.10
2023-02-08T16:30:08.240Z,1.80
2023-02-08T16:31:08.406Z,1.90
2023-02-08T16:32:13.262Z,1.60
2023-02-08T16:33:08.243Z,1.60
2023-02-08T16:34:08.199Z,1.70
2023-02-08T16:35:08.182Z,2.10
2023-02-08T16:36:08.199Z,2.50
2023-02-08T16:37:08.164Z,2.30
2023-02-08T16:38:08.191Z,2.60
2023-02-08T16:39:08.145Z,2.30
2023-02-08T16:40:08.145Z,2.50
2023-02-08T16:41:08.141Z,3.00
2023-02-08T16:42:15.717Z,2.60
2023-02-08T16:43:08.110Z,2.50
2023-02-08T16:44:08.089Z,2.70
2023-02-08T16:45:08.081Z,2.90
2023-02-08T16:46:08.125Z,2.40
2023-02-08T16:47:08.054Z,2.00
2023-02-08T16:48:18.486Z,2.30
2023-02-08T16:49:08.040Z,2.90
2023-02-08T16:50:08.048Z,2.70
2023-02-08T16:51:08.041Z,2.30
2023-02-08T16:52:08.008Z,2.20
2023-02-08T16:53:08.002Z,1.80
2023-02-08T16:54:08.005Z,1.80
2023-02-08T16:55:08.028Z,1.60
2023-02-08T16:56:08.066Z,1.90
2023-02-08T16:57:07.951Z,2.60
2023-02-08T16:58:07.954Z,2.30
2023-02-08T16:59:08.009Z,2.30
2023-02-08T17:00:07.939Z,2.80
2023-02-08T17:01:08.028Z,3.30
2023-02-08T17:02:07.905Z,3.50
2023-02-08T17:03:07.906Z,3.70
2023-02-08T17:04:07.929Z,3.00
2023-02-08T17:05:07.872Z,3.40
2023-02-08T17:06:07.906Z,2.60
2023-02-08T17:07:07.869Z,3.00
2023-02-08T17:08:07.904Z,3.70
2023-02-08T17:09:07.836Z,2.80
2023-02-08T17:10:07.867Z,3.40
2023-02-08T17:11:07.848Z,2.70
2023-02-08T17:12:21.278Z,3.00
2023-02-08T17:13:19.899Z,3.20
2023-02-08T17:14:07.829Z,3.90
2023-02-08T17:15:07.772Z,3.30
2023-02-08T17:16:07.877Z,3.70
2023-02-08T17:17:07.761Z,3.70
2023-02-08T17:18:07.748Z,4.10
2023-02-08T17:19:07.730Z,4.00
2023-02-08T17:20:07.726Z,4.20
2023-02-08T17:21:07.733Z,4.70
2023-02-08T17:22:07.719Z,4.30
2023-02-08T17:23:07.692Z,4.00
2023-02-08T17:24:07.684Z,4.40
2023-02-08T17:25:07.695Z,4.40
2023-02-08T17:26:07.725Z,4.30
2023-02-08T17:27:07.647Z,3.90
2023-02-08T17:28:07.688Z,13.30
2023-02-08T17:29:07.637Z,4.60
2023-02-08T17:30:07.674Z,4.40
2023-02-08T17:31:07.799Z,3.60
2023-02-08T17:32:07.636Z,3.40
2023-02-08T17:33:07.605Z,3.90
2023-02-08T17:34:07.597Z,3.50
2023-02-08T17:35:07.594Z,4.30
2023-02-08T17:36:07.595Z,3.90
2023-02-08T17:37:07.562Z,3.70
2023-02-08T17:38:07.576Z,5.20
2023-02-08T17:39:07.529Z,4.90
2023-02-08T17:40:07.516Z,4.70
2023-02-08T17:41:15.268Z,5.40
2023-02-08T17:42:07.496Z,5.60
2023-02-08T17:43:07.479Z,5.10
2023-02-08T17:44:09.250Z,6.30
2023-02-08T17:45:07.453Z,6.60
2023-02-08T17:46:07.493Z,5.80
2023-02-08T17:47:07.488Z,5.60
2023-02-08T17:48:07.433Z,5.30
2023-02-08T17:49:07.408Z,5.40
2023-02-08T17:50:07.426Z,5.10
2023-02-08T17:51:07.404Z,4.30
2023-02-08T17:52:07.411Z,4.70
2023-02-08T17:53:37.922Z,5.30
2023-02-08T17:54:07.367Z,4.60
2023-02-08T17:55:12.401Z,4.00
2023-02-08T17:56:07.389Z,5.70
2023-02-08T17:57:07.351Z,4.70
2023-02-08T17:58:07.324Z,3.50
2023-02-08T17:59:07.313Z,5.20
2023-02-08T18:00:07.313Z,4.10
2023-02-08T18:01:07.678Z,10.70
2023-02-08T18:02:07.306Z,8.00
2023-02-08T18:03:07.337Z,6.60
2023-02-08T18:04:07.262Z,3.80
2023-02-08T18:05:07.247Z,3.70
2023-02-08T18:06:07.252Z,3.40
2023-02-08T18:07:07.247Z,3.60
2023-02-08T18:08:07.213Z,3.10
2023-02-08T18:09:07.207Z,3.00
2023-02-08T18:10:07.194Z,3.00
2023-02-08T18:11:07.333Z,3.10
2023-02-08T18:12:07.371Z,3.00
2023-02-08T18:13:07.183Z,4.30
2023-02-08T18:14:07.157Z,3.70
2023-02-08T18:15:07.134Z,4.20
2023-02-08T18:16:07.148Z,3.30
2023-02-08T18:17:07.155Z,3.20
2023-02-08T18:18:07.141Z,3.00
2023-02-08T18:19:07.088Z,3.10
2023-02-08T18:20:07.119Z,3.30
2023-02-08T18:21:07.071Z,3.40
2023-02-08T18:22:07.094Z,3.50
2023-02-08T18:23:07.052Z,3.40
2023-02-08T18:24:07.084Z,3.30
2023-02-08T18:25:07.123Z,3.50
2023-02-08T18:26:07.065Z,3.70
2023-02-08T18:27:07.042Z,3.90
2023-02-08T18:28:07.045Z,3.50
2023-02-08T18:29:06.990Z,3.40
2023-02-08T18:30:07.014Z,3.60
2023-02-08T18:31:07.125Z,3.50
2023-02-08T18:32:07.024Z,3.60
2023-02-08T18:33:06.973Z,3.40
2023-02-08T18:34:06.940Z,4.00
2023-02-08T18:35:06.965Z,3.50
2023-02-08T18:36:06.945Z,3.00
2023-02-08T18:37:06.953Z,3.90
2023-02-08T18:38:06.912Z,3.40
2023-02-08T18:39:06.910Z,3.80
2023-02-08T18:40:06.985Z,3.90
2023-02-08T18:41:06.862Z,4.70
2023-02-08T18:42:06.886Z,4.70
2023-02-08T18:43:06.891Z,4.50
2023-02-08T18:44:07.186Z,5.40
2023-02-08T18:45:06.873Z,5.90
2023-02-08T18:46:06.809Z,5.90
2023-02-08T18:47:06.840Z,5.30
2023-02-08T18:48:06.814Z,6.50
2023-02-08T18:49:06.908Z,6.60
2023-02-08T18:50:06.782Z,6.90
2023-02-08T18:51:06.750Z,7.60
2023-02-08T18:52:06.769Z,6.80
2023-02-08T18:53:06.754Z,6.30
2023-02-08T18:54:06.723Z,7.20
2023-02-08T18:55:06.749Z,7.70
2023-02-08T18:56:06.738Z,8.20
2023-02-08T18:57:06.715Z,7.50
2023-02-08T18:58:06.703Z,8.00
2023-02-08T18:59:06.696Z,7.80
2023-02-08T19:00:06.689Z,6.60
2023-02-08T19:01:06.695Z,7.90
2023-02-08T19:02:06.719Z,8.60
2023-02-08T19:03:06.641Z,5.40
2023-02-08T19:04:06.644Z,6.70
2023-02-08T19:05:06.601Z,7.20
2023-02-08T19:06:06.619Z,6.30
2023-02-08T19:07:06.609Z,6.40
2023-02-08T19:08:06.577Z,6.00
2023-02-08T19:09:06.596Z,6.90
2023-02-08T19:10:06.550Z,5.90
2023-02-08T19:11:06.543Z,5.70
2023-02-08T19:12:06.552Z,6.30
2023-02-08T19:13:06.565Z,5.50
2023-02-08T19:14:06.513Z,6.40
2023-02-08T19:15:06.495Z,5.20
2023-02-08T19:16:06.534Z,4.40
2023-02-08T19:17:06.494Z,5.40
2023-02-08T19:18:06.469Z,5.10
2023-02-08T19:19:06.467Z,5.80
2023-02-08T19:20:06.447Z,6.10
2023-02-08T19:21:06.448Z,4.70
2023-02-08T19:22:06.469Z,5.70
2023-02-08T19:23:06.414Z,5.20
2023-02-08T19:24:06.405Z,4.60
2023-02-08T19:25:06.400Z,5.00
2023-02-08T19:26:06.396Z,5.90
2023-02-08T19:27:06.398Z,5.80
2023-02-08T19:28:06.444Z,5.70
2023-02-08T19:29:06.358Z,4.60
2023-02-08T19:30:06.354Z,6.20
2023-02-08T19:31:06.426Z,5.80
2023-02-08T19:32:06.418Z,5.50
2023-02-08T19:33:06.338Z,4.60
2023-02-08T19:34:06.315Z,5.30
2023-02-08T19:35:06.351Z,5.50
2023-02-08T19:36:06.322Z,5.30
2023-02-08T19:37:06.317Z,5.40
2023-02-08T19:38:06.322Z,4.80
2023-02-08T19:39:06.312Z,5.00
2023-02-08T19:40:06.277Z,5.90
2023-02-08T19:41:06.266Z,5.50
2023-02-08T19:42:06.277Z,5.00
2023-02-08T19:43:06.242Z,4.60
2023-02-08T19:44:06.272Z,5.30
2023-02-08T19:45:06.200Z,5.60
2023-02-08T19:46:06.310Z,5.10
2023-02-08T19:47:06.203Z,4.10
2023-02-08T19:48:06.180Z,4.40
2023-02-08T19:49:06.157Z,4.10
2023-02-08T19:50:06.178Z,4.00
2023-02-08T19:51:06.161Z,4.60
2023-02-08T19:52:06.155Z,4.20
2023-02-08T19:53:06.109Z,4.30
2023-02-08T19:54:06.123Z,4.10
2023-02-08T19:55:06.116Z,4.80
2023-02-08T19:56:06.168Z,4.20
2023-02-08T19:57:06.077Z,4.30
2023-02-08T19:58:06.109Z,4.90
2023-02-08T19:59:06.059Z,4.70
2023-02-08T20:00:11.299Z,5.20
2023-02-08T20:01:06.045Z,4.90
2023-02-08T20:02:06.109Z,4.80
2023-02-08T20:03:19.655Z,4.70
2023-02-08T20:04:06.055Z,5.20
2023-02-08T20:05:05.995Z,5.50
2023-02-08T20:06:05.991Z,5.20
2023-02-08T20:07:06.014Z,5.70
2023-02-08T20:08:05.994Z,5.30
2023-02-08T20:09:05.984Z,6.90
2023-02-08T20:10:06.076Z,6.80
2023-02-08T20:11:05.936Z,7.90
2023-02-08T20:12:05.931Z,6.00
2023-02-08T20:13:05.943Z,6.70
2023-02-08T20:14:05.919Z,8.10
2023-02-08T20:15:12.413Z,6.00
2023-02-08T20:16:12.453Z,9.00
2023-02-08T20:17:05.885Z,10.60
2023-02-08T20:18:05.928Z,7.60
2023-02-08T20:19:05.859Z,6.60
2023-02-08T20:20:05.850Z,7.50
2023-02-08T20:21:05.884Z,5.60
2023-02-08T20:22:05.845Z,4.60
2023-02-08T20:23:14.037Z,5.00
2023-02-08T20:24:05.829Z,4.00
2023-02-08T20:25:05.796Z,4.20
2023-02-08T20:26:05.794Z,4.30
2023-02-08T20:27:05.871Z,4.00
2023-02-08T20:28:05.860Z,3.40
2023-02-08T20:29:05.765Z,3.10
2023-02-08T20:30:05.744Z,3.40
2023-02-08T20:31:05.761Z,3.70
2023-02-08T20:32:05.829Z,3.20
2023-02-08T20:33:05.767Z,3.50
2023-02-08T20:34:05.770Z,3.90
2023-02-08T20:35:05.702Z,3.70
2023-02-08T20:36:05.682Z,2.70
2023-02-08T20:37:08.079Z,3.30
2023-02-08T20:38:05.702Z,3.30
2023-02-08T20:39:05.683Z,3.70
2023-02-08T20:40:05.657Z,2.60
2023-02-08T20:41:05.684Z,2.80
2023-02-08T20:42:05.782Z,3.00
2023-02-08T20:43:05.656Z,3.00
2023-02-08T20:44:05.607Z,2.80
2023-02-08T20:45:05.623Z,2.80
2023-02-08T20:46:05.653Z,2.90
2023-02-08T20:47:05.593Z,3.50
2023-02-08T20:48:05.603Z,3.20
2023-02-08T20:49:05.596Z,3.00
2023-02-08T20:50:17.895Z,3.00
2023-02-08T20:51:05.557Z,2.60
2023-02-08T20:52:05.546Z,2.90
2023-02-08T20:53:05.563Z,2.90
2023-02-08T20:54:05.514Z,2.70
2023-02-08T20:55:05.518Z,3.90
2023-02-08T20:56:05.500Z,3.10
2023-02-08T20:57:05.491Z,2.80
2023-02-08T20:58:05.511Z,3.10
2023-02-08T20:59:05.504Z,2.50
2023-02-08T21:00:05.479Z,2.90
2023-02-08T21:01:05.466Z,2.40
2023-02-08T21:02:05.538Z,3.00
2023-02-08T21:03:05.484Z,2.80
2023-02-08T21:04:05.425Z,3.00
2023-02-08T21:05:05.408Z,2.80
2023-02-08T21:06:05.403Z,2.50
2023-02-08T21:07:05.393Z,3.80
2023-02-08T21:08:05.431Z,2.70
2023-02-08T21:09:05.379Z,2.00
2023-02-08T21:10:05.376Z,2.80
2023-02-08T21:11:05.373Z,2.60
2023-02-08T21:12:05.337Z,2.50
2023-02-08T21:13:05.358Z,2.50
2023-02-08T21:14:05.334Z,2.40
2023-02-08T21:15:05.348Z,2.20
2023-02-08T21:16:05.302Z,2.70
2023-02-08T21:17:05.327Z,2.80
2023-02-08T21:18:05.344Z,2.60
2023-02-08T21:19:05.304Z,2.50
2023-02-08T21:20:05.254Z,2.40
2023-02-08T21:21:05.266Z,2.40
2023-02-08T21:22:05.263Z,2.50
2023-02-08T21:23:05.259Z,2.80
2023-02-08T21:24:05.216Z,3.00
2023-02-08T21:25:05.239Z,3.20
2023-02-08T21:26:05.196Z,2.50
2023-02-08T21:27:05.220Z,2.60
2023-02-08T21:28:05.353Z,2.70
2023-02-08T21:29:05.228Z,2.40
2023-02-08T21:30:05.168Z,2.40
2023-02-08T21:31:05.274Z,2.80
2023-02-08T21:32:05.341Z,2.50
2023-02-08T21:33:05.135Z,2.20
2023-02-08T21:34:05.159Z,2.30
2023-02-08T21:35:05.111Z,2.20
2023-02-08T21:36:05.108Z,2.60
2023-02-08T21:37:05.098Z,1.80
2023-02-08T21:38:05.078Z,2.50
2023-02-08T21:39:05.112Z,2.10
2023-02-08T21:40:05.064Z,2.30
2023-02-08T21:41:05.049Z,1.80
2023-02-08T21:42:05.038Z,2.40
2023-02-08T21:43:05.033Z,2.40
2023-02-08T21:44:05.060Z,2.40
2023-02-08T21:45:05.025Z,2.40
2023-02-08T21:46:12.583Z,2.00
2023-02-08T21:47:11.495Z,2.30
2023-02-08T21:48:04.971Z,2.10
2023-02-08T21:49:05.017Z,3.00
2023-02-08T21:50:04.973Z,1.70
2023-02-08T21:51:04.949Z,1.80
2023-02-08T21:52:04.932Z,2.10
2023-02-08T21:53:04.944Z,2.10
2023-02-08T21:54:04.938Z,1.90
2023-02-08T21:55:04.923Z,2.30
2023-02-08T21:56:04.885Z,2.20
2023-02-08T21:57:04.890Z,2.00
2023-02-08T21:58:04.873Z,2.10
2023-02-08T21:59:04.893Z,1.90
2023-02-08T22:00:04.855Z,2.10
2023-02-08T22:01:04.921Z,1.80
2023-02-08T22:02:04.830Z,2.00
2023-02-08T22:03:04.868Z,1.80
2023-02-08T22:04:04.838Z,2.40
2023-02-08T22:05:04.840Z,1.80
2023-02-08T22:06:04.815Z,1.90
2023-02-08T22:07:04.795Z,2.50
2023-02-08T22:08:04.778Z,2.10
2023-02-08T22:09:04.810Z,2.00
2023-02-08T22:10:04.753Z,2.00
2023-02-08T22:11:05.358Z,2.40
2023-02-08T22:12:04.764Z,1.90
2023-02-08T22:13:04.745Z,1.60
2023-02-08T22:14:04.814Z,2.30
2023-02-08T22:15:04.736Z,2.30
2023-02-08T22:16:04.879Z,2.10
2023-02-08T22:17:04.722Z,2.20
2023-02-08T22:18:04.681Z,2.50
2023-02-08T22:19:04.723Z,1.80
2023-02-08T22:20:04.686Z,2.20
2023-02-08T22:21:04.654Z,2.80
2023-02-08T22:22:04.634Z,2.30
2023-02-08T22:23:04.629Z,1.80
2023-02-08T22:24:04.643Z,1.90
2023-02-08T22:25:04.633Z,1.80
2023-02-08T22:26:04.616Z,2.30
2023-02-08T22:27:04.621Z,2.00
2023-02-08T22:28:04.609Z,2.10
2023-02-08T22:29:04.619Z,2.30
2023-02-08T22:30:04.576Z,2.70
2023-02-08T22:31:04.650Z,2.00
2023-02-08T22:32:04.688Z,2.40
2023-02-08T22:33:04.551Z,2.00
2023-02-08T22:34:04.554Z,2.30
2023-02-08T22:35:11.027Z,2.00
2023-02-08T22:36:04.501Z,1.80
2023-02-08T22:37:04.492Z,2.70
2023-02-08T22:38:04.530Z,2.70
2023-02-08T22:39:04.508Z,2.00
2023-02-08T22:40:04.475Z,2.20
2023-02-08T22:41:04.467Z,1.90
2023-02-08T22:42:04.454Z,2.20
2023-02-08T22:43:04.444Z,2.10
2023-02-08T22:44:04.452Z,2.20
2023-02-08T22:45:04.424Z,2.20
2023-02-08T22:46:04.430Z,2.30
2023-02-08T22:47:04.404Z,2.10
2023-02-08T22:48:06.662Z,2.50
2023-02-08T22:49:04.408Z,2.70
2023-02-08T22:50:04.375Z,2.00
2023-02-08T22:51:04.377Z,2.20
2023-02-08T22:52:04.344Z,2.40
2023-02-08T22:53:04.347Z,1.80
2023-02-08T22:54:04.418Z,2.90
2023-02-08T22:55:04.338Z,3.00
2023-02-08T22:56:04.322Z,2.50
2023-02-08T22:57:04.297Z,2.60
2023-02-08T22:58:04.294Z,2.20
2023-02-08T22:59:04.308Z,2.40
2023-02-08T23:00:04.294Z,2.70
2023-02-08T23:01:04.261Z,2.90
2023-02-08T23:02:04.329Z,2.00
2023-02-08T23:03:04.268Z,2.20
2023-02-08T23:04:04.280Z,2.60
2023-02-08T23:05:04.230Z,2.00
2023-02-08T23:06:04.228Z,1.90
2023-02-08T23:07:04.223Z,1.90
2023-02-08T23:08:04.198Z,2.50
2023-02-08T23:09:04.214Z,1.90
2023-02-08T23:10:04.159Z,2.30
2023-02-08T23:11:04.148Z,1.80
2023-02-08T23:12:04.145Z,1.80
2023-02-08T23:13:04.146Z,2.20
2023-02-08T23:14:04.128Z,1.50
2023-02-08T23:15:04.178Z,1.80
2023-02-08T23:16:04.165Z,1.80
2023-02-08T23:17:04.112Z,2.00
2023-02-08T23:18:04.120Z,1.90
2023-02-08T23:19:04.095Z,1.70
2023-02-08T23:20:04.084Z,1.70
2023-02-08T23:21:04.062Z,1.80
2023-02-08T23:22:04.108Z,2.30
2023-02-08T23:23:04.040Z,2.00
2023-02-08T23:24:04.016Z,1.60
2023-02-08T23:25:04.042Z,1.60
2023-02-08T23:26:03.998Z,2.20
2023-02-08T23:27:03.992Z,1.70
2023-02-08T23:28:04.012Z,1.70
2023-02-08T23:29:10.457Z,2.10
2023-02-08T23:30:03.983Z,2.50
2023-02-08T23:31:04.067Z,1.80
2023-02-08T23:32:04.019Z,1.90
2023-02-08T23:33:03.937Z,2.10
2023-02-08T23:34:03.924Z,1.70
2023-02-08T23:35:03.942Z,1.60
2023-02-08T23:36:03.913Z,1.60
2023-02-08T23:37:03.893Z,1.80
2023-02-08T23:38:03.887Z,2.00
2023-02-08T23:39:03.884Z,2.00
2023-02-08T23:40:03.889Z,2.10
2023-02-08T23:41:03.852Z,2.10
2023-02-08T23:42:03.839Z,2.10
2023-02-08T23:43:03.838Z,2.00
2023-02-08T23:44:03.822Z,2.00
2023-02-08T23:45:03.878Z,2.10
2023-02-08T23:46:03.813Z,1.50
2023-02-08T23:47:03.931Z,2.00
2023-02-08T23:48:03.790Z,1.80
2023-02-08T23:49:03.790Z,1.80
2023-02-08T23:50:03.800Z,1.90
2023-02-08T23:51:03.761Z,2.00
2023-02-08T23:52:03.745Z,1.90
2023-02-08T23:53:03.736Z,2.20
2023-02-08T23:54:03.725Z,2.40
2023-02-08T23:55:03.748Z,1.70
2023-02-08T23:56:03.733Z,1.40
2023-02-08T23:57:03.731Z,1.70
2023-02-08T23:58:03.707Z,2.10
2023-02-08T23:59:03.680Z,2.20
